createdAt,value
2022-12-21T00:02:22.325Z,128.33
2022-12-21T00:12:27.583Z,127.73
2022-12-21T00:22:31.412Z,129.27
2022-12-21T00:32:37.635Z,132.17
2022-12-21T00:42:41.406Z,125.37
2022-12-21T00:52:46.709Z,112.37
2022-12-21T01:02:50.889Z,124.47
2022-12-21T01:12:56.649Z,117.37
2022-12-21T01:23:00.525Z,119.40
2022-12-21T01:33:05.625Z,120.33
2022-12-21T01:43:19.832Z,131.47
2022-12-21T01:53:30.412Z,136.17
2022-12-21T02:03:50.905Z,136.87
2022-12-21T02:13:56.109Z,136.33
2022-12-21T02:24:55.182Z,132.87
2022-12-21T02:35:11.392Z,139.10
2022-12-21T02:45:25.463Z,134.23
2022-12-21T02:55:30.761Z,144.70
2022-12-21T03:05:54.167Z,143.60
2022-12-21T03:16:06.388Z,143.03
2022-12-21T03:26:17.577Z,144.03
2022-12-21T03:36:29.850Z,139.90
2022-12-21T03:46:39.638Z,133.13
2022-12-21T03:56:45.408Z,135.07
2022-12-21T04:06:51.304Z,136.00
2022-12-21T04:16:56.530Z,131.23
2022-12-21T04:27:26.398Z,134.60
2022-12-21T04:37:35.483Z,126.77
2022-12-21T04:47:39.260Z,130.13
2022-12-21T04:57:44.415Z,125.30
2022-12-21T05:07:48.168Z,136.97
2022-12-21T05:17:53.383Z,136.27
2022-12-21T05:27:57.052Z,136.77
2022-12-21T05:38:02.294Z,142.17
2022-12-21T05:48:06.384Z,143.17
2022-12-21T05:58:12.061Z,149.50
2022-12-21T06:08:16.399Z,146.40
2022-12-21T06:18:21.589Z,155.10
2022-12-21T06:28:27.869Z,144.40
2022-12-21T06:38:34.087Z,146.57
2022-12-21T06:48:39.718Z,150.93
2022-12-21T06:58:45.247Z,152.60
2022-12-21T07:08:49.864Z,163.33
2022-12-21T07:18:55.502Z,152.03
2022-12-21T07:28:59.272Z,151.13
2022-12-21T07:39:04.411Z,150.13
2022-12-21T07:49:08.238Z,152.53
2022-12-21T07:59:13.509Z,159.27
2022-12-21T08:09:17.588Z,155.37
2022-12-21T08:19:22.735Z,156.90
2022-12-21T08:29:27.583Z,151.47
2022-12-21T08:39:32.835Z,143.30
2022-12-21T08:49:36.574Z,160.87
2022-12-21T08:59:46.570Z,155.43
2022-12-21T09:09:52.346Z,161.90
2022-12-21T09:19:57.414Z,157.50
2022-12-21T09:30:01.041Z,169.00
2022-12-21T09:40:09.387Z,180.90
2022-12-21T09:50:21.356Z,171.07
2022-12-21T10:00:27.754Z,173.60
2022-12-21T10:10:37.929Z,156.43
2022-12-21T10:20:58.086Z,149.93
2022-12-21T10:31:07.295Z,143.00
2022-12-21T10:41:18.001Z,148.60
2022-12-21T10:51:30.304Z,144.83
2022-12-21T11:01:36.024Z,148.07
2022-12-21T11:11:40.655Z,142.47
2022-12-21T11:21:50.783Z,143.47
2022-12-21T11:31:56.746Z,137.80
2022-12-21T11:42:02.000Z,142.83
2022-12-21T11:52:15.401Z,136.90
2022-12-21T12:02:55.064Z,142.77
2022-12-21T12:13:10.511Z,138.67
2022-12-21T12:23:26.109Z,135.00
2022-12-21T12:33:46.192Z,138.70
2022-12-21T12:43:59.718Z,134.00
2022-12-21T12:54:13.032Z,138.67
2022-12-21T13:04:47.619Z,139.67
2022-12-21T13:14:58.066Z,133.07
2022-12-21T13:25:08.426Z,145.27
2022-12-21T13:35:23.192Z,136.60
2022-12-21T13:45:42.126Z,136.17
2022-12-21T13:55:55.460Z,134.57
2022-12-21T14:06:26.561Z,137.83
2022-12-21T14:16:34.375Z,144.90
2022-12-21T14:26:46.085Z,141.83
2022-12-21T14:37:27.244Z,142.30
2022-12-21T14:47:32.211Z,147.17
2022-12-21T14:57:40.935Z,151.47
2022-12-21T15:07:51.963Z,153.70
2022-12-21T15:18:24.920Z,155.13
2022-12-21T15:28:26.367Z,168.83
2022-12-21T15:38:38.778Z,171.67
2022-12-21T15:48:49.750Z,172.70
2022-12-21T15:58:54.137Z,159.33
2022-12-21T16:08:59.452Z,166.10
2022-12-21T16:19:22.448Z,155.57
2022-12-21T16:29:29.873Z,143.60
2022-12-21T16:39:34.593Z,144.17
2022-12-21T16:49:40.370Z,143.07
2022-12-21T16:59:45.745Z,138.63
2022-12-21T17:09:55.075Z,130.20
2022-12-21T17:20:17.418Z,137.00
2022-12-21T17:30:25.945Z,136.63
2022-12-21T17:40:30.074Z,135.37
2022-12-21T17:50:38.936Z,142.03
2022-12-21T18:00:44.674Z,135.17
2022-12-21T18:10:50.680Z,141.90
2022-12-21T18:20:55.345Z,134.00
2022-12-21T18:31:03.968Z,139.33
2022-12-21T18:41:09.849Z,165.77
2022-12-21T18:51:27.989Z,148.93
2022-12-21T19:01:35.803Z,150.50
2022-12-21T19:11:41.154Z,149.13
2022-12-21T19:21:45.799Z,142.50
2022-12-21T19:31:51.735Z,141.57
2022-12-21T19:41:56.105Z,144.23
2022-12-21T19:52:01.698Z,162.87
2022-12-21T20:02:21.615Z,167.23
2022-12-21T20:12:27.322Z,153.67
2022-12-21T20:22:31.176Z,166.50
2022-12-21T20:32:36.956Z,169.30
2022-12-21T20:42:58.005Z,174.23
2022-12-21T20:53:06.517Z,176.63
2022-12-21T21:03:33.085Z,149.83
2022-12-21T21:13:38.493Z,159.47
2022-12-21T21:23:42.468Z,161.50
2022-12-21T21:33:47.809Z,158.20
2022-12-21T21:43:51.677Z,153.30
2022-12-21T21:53:57.360Z,154.20
2022-12-21T22:04:01.105Z,143.83
2022-12-21T22:14:06.278Z,138.10
2022-12-21T22:24:29.812Z,135.50
2022-12-21T22:34:58.421Z,135.63
2022-12-21T22:45:23.355Z,135.33
2022-12-21T22:55:32.729Z,132.37
2022-12-21T23:05:36.748Z,137.23
2022-12-21T23:15:42.331Z,147.23
2022-12-21T23:26:07.381Z,135.00
2022-12-21T23:36:37.250Z,129.40
2022-12-21T23:46:58.261Z,137.60
2022-12-21T23:57:21.681Z,130.83
